sensor_id;sensor_type;location;lat;lon;timestamp;P1;durP1;ratioP1;P2;durP2;ratioP2
73672;SDS011;61972;19.480;-99.240;2023-09-08T00:00:58;6.97;;;2.80;;
73672;SDS011;61972;19.480;-99.240;2023-09-08T00:03:24;5.20;;;2.70;;
73672;SDS011;61972;19.480;-99.240;2023-09-08T00:05:51;5.18;;;2.65;;
73672;SDS011;61972;19.480;-99.240;2023-09-08T00:08:17;7.07;;;2.67;;
73672;SDS011;61972;19.480;-99.240;2023-09-08T00:10:43;6.15;;;2.50;;
73672;SDS011;61972;19.480;-99.240;2023-09-08T00:13:09;7.40;;;3.03;;
73672;SDS011;61972;19.480;-99.240;2023-09-08T00:15:36;6.68;;;2.90;;
73672;SDS011;61972;19.480;-99.240;2023-09-08T00:18:02;5.80;;;2.88;;
73672;SDS011;61972;19.480;-99.240;2023-09-08T00:20:28;5.85;;;2.55;;
73672;SDS011;61972;19.480;-99.240;2023-09-08T00:22:55;6.53;;;3.08;;
73672;SDS011;61972;19.480;-99.240;2023-09-08T00:25:21;4.57;;;2.58;;
73672;SDS011;61972;19.480;-99.240;2023-09-08T00:27:47;7.00;;;2.75;;
73672;SDS011;61972;19.480;-99.240;2023-09-08T00:30:13;6.50;;;2.60;;
73672;SDS011;61972;19.480;-99.240;2023-09-08T00:32:39;8.75;;;2.63;;
73672;SDS011;61972;19.480;-99.240;2023-09-08T00:35:06;7.95;;;2.90;;
73672;SDS011;61972;19.480;-99.240;2023-09-08T00:37:35;6.63;;;3.22;;
73672;SDS011;61972;19.480;-99.240;2023-09-08T00:40:01;7.82;;;3.30;;
73672;SDS011;61972;19.480;-99.240;2023-09-08T00:42:27;6.65;;;3.00;;
73672;SDS011;61972;19.480;-99.240;2023-09-08T00:44:53;7.38;;;2.80;;
73672;SDS011;61972;19.480;-99.240;2023-09-08T00:47:19;4.68;;;2.80;;
73672;SDS011;61972;19.480;-99.240;2023-09-08T00:49:46;7.57;;;3.30;;
73672;SDS011;61972;19.480;-99.240;2023-09-08T00:52:14;6.53;;;3.33;;
73672;SDS011;61972;19.480;-99.240;2023-09-08T00:54:40;6.28;;;3.30;;
73672;SDS011;61972;19.480;-99.240;2023-09-08T00:57:06;6.63;;;3.15;;
73672;SDS011;61972;19.480;-99.240;2023-09-08T00:59:34;7.28;;;3.30;;
73672;SDS011;61972;19.480;-99.240;2023-09-08T01:02:01;4.95;;;3.40;;
73672;SDS011;61972;19.480;-99.240;2023-09-08T01:04:28;7.40;;;3.20;;
73672;SDS011;61972;19.480;-99.240;2023-09-08T01:06:54;8.70;;;3.28;;
73672;SDS011;61972;19.480;-99.240;2023-09-08T01:09:21;7.85;;;3.40;;
73672;SDS011;61972;19.480;-99.240;2023-09-08T01:11:48;9.98;;;4.00;;
73672;SDS011;61972;19.480;-99.240;2023-09-08T01:14:17;11.07;;;4.38;;
73672;SDS011;61972;19.480;-99.240;2023-09-08T01:16:45;9.60;;;3.77;;
73672;SDS011;61972;19.480;-99.240;2023-09-08T01:19:11;12.55;;;3.88;;
73672;SDS011;61972;19.480;-99.240;2023-09-08T01:24:44;6.10;;;3.33;;
73672;SDS011;61972;19.480;-99.240;2023-09-08T01:27:33;7.93;;;3.38;;
73672;SDS011;61972;19.480;-99.240;2023-09-08T01:30:01;8.07;;;3.33;;
73672;SDS011;61972;19.480;-99.240;2023-09-08T01:32:29;6.18;;;3.00;;
73672;SDS011;61972;19.480;-99.240;2023-09-08T01:34:56;5.00;;;3.00;;
73672;SDS011;61972;19.480;-99.240;2023-09-08T01:37:24;7.28;;;3.40;;
73672;SDS011;61972;19.480;-99.240;2023-09-08T01:39:50;7.43;;;3.30;;
73672;SDS011;61972;19.480;-99.240;2023-09-08T01:42:17;4.80;;;3.03;;
73672;SDS011;61972;19.480;-99.240;2023-09-08T01:44:43;5.57;;;3.35;;
73672;SDS011;61972;19.480;-99.240;2023-09-08T01:47:09;5.47;;;3.20;;
73672;SDS011;61972;19.480;-99.240;2023-09-08T01:49:35;4.57;;;2.90;;
73672;SDS011;61972;19.480;-99.240;2023-09-08T01:52:03;6.97;;;3.60;;
73672;SDS011;61972;19.480;-99.240;2023-09-08T01:54:30;5.80;;;3.10;;
73672;SDS011;61972;19.480;-99.240;2023-09-08T01:56:56;5.22;;;3.50;;
73672;SDS011;61972;19.480;-99.240;2023-09-08T01:59:22;7.22;;;3.70;;
73672;SDS011;61972;19.480;-99.240;2023-09-08T02:01:48;6.03;;;3.72;;
73672;SDS011;61972;19.480;-99.240;2023-09-08T02:04:14;7.40;;;4.32;;
73672;SDS011;61972;19.480;-99.240;2023-09-08T02:06:40;7.13;;;3.93;;
73672;SDS011;61972;19.480;-99.240;2023-09-08T02:09:07;6.97;;;4.53;;
73672;SDS011;61972;19.480;-99.240;2023-09-08T02:11:37;12.38;;;4.75;;
73672;SDS011;61972;19.480;-99.240;2023-09-08T02:14:03;11.50;;;4.78;;
73672;SDS011;61972;19.480;-99.240;2023-09-08T02:16:29;8.82;;;4.50;;
73672;SDS011;61972;19.480;-99.240;2023-09-08T02:18:55;7.67;;;5.23;;
73672;SDS011;61972;19.480;-99.240;2023-09-08T02:21:21;11.48;;;5.05;;
73672;SDS011;61972;19.480;-99.240;2023-09-08T02:23:47;8.27;;;4.75;;
73672;SDS011;61972;19.480;-99.240;2023-09-08T02:26:13;7.57;;;5.07;;
73672;SDS011;61972;19.480;-99.240;2023-09-08T02:28:39;8.90;;;5.07;;
73672;SDS011;61972;19.480;-99.240;2023-09-08T02:31:05;10.80;;;5.17;;
73672;SDS011;61972;19.480;-99.240;2023-09-08T02:33:32;8.98;;;5.07;;
73672;SDS011;61972;19.480;-99.240;2023-09-08T02:36:02;11.10;;;5.57;;
73672;SDS011;61972;19.480;-99.240;2023-09-08T02:38:30;8.98;;;5.22;;
73672;SDS011;61972;19.480;-99.240;2023-09-08T02:40:56;10.32;;;5.88;;
73672;SDS011;61972;19.480;-99.240;2023-09-08T02:43:23;11.13;;;5.70;;
73672;SDS011;61972;19.480;-99.240;2023-09-08T02:45:49;10.07;;;5.95;;
73672;SDS011;61972;19.480;-99.240;2023-09-08T02:48:15;7.88;;;5.50;;
73672;SDS011;61972;19.480;-99.240;2023-09-08T02:50:42;8.88;;;5.60;;
73672;SDS011;61972;19.480;-99.240;2023-09-08T02:53:09;14.18;;;6.00;;
73672;SDS011;61972;19.480;-99.240;2023-09-08T02:55:35;10.20;;;5.90;;
73672;SDS011;61972;19.480;-99.240;2023-09-08T02:58:01;7.10;;;5.00;;
73672;SDS011;61972;19.480;-99.240;2023-09-08T03:00:27;12.52;;;5.75;;
73672;SDS011;61972;19.480;-99.240;2023-09-08T03:02:54;8.10;;;5.07;;
73672;SDS011;61972;19.480;-99.240;2023-09-08T03:05:21;9.50;;;5.20;;
73672;SDS011;61972;19.480;-99.240;2023-09-08T03:07:49;7.17;;;4.60;;
73672;SDS011;61972;19.480;-99.240;2023-09-08T03:10:15;8.68;;;4.95;;
73672;SDS011;61972;19.480;-99.240;2023-09-08T03:12:42;8.75;;;4.63;;
73672;SDS011;61972;19.480;-99.240;2023-09-08T03:15:08;8.00;;;4.50;;
73672;SDS011;61972;19.480;-99.240;2023-09-08T03:17:35;9.48;;;4.60;;
73672;SDS011;61972;19.480;-99.240;2023-09-08T03:20:01;7.43;;;4.70;;
73672;SDS011;61972;19.480;-99.240;2023-09-08T03:22:29;8.27;;;4.78;;
73672;SDS011;61972;19.480;-99.240;2023-09-08T03:24:56;8.48;;;4.78;;
73672;SDS011;61972;19.480;-99.240;2023-09-08T03:27:22;7.93;;;5.20;;
73672;SDS011;61972;19.480;-99.240;2023-09-08T03:29:48;12.07;;;5.07;;
73672;SDS011;61972;19.480;-99.240;2023-09-08T03:32:14;7.53;;;4.80;;
73672;SDS011;61972;19.480;-99.240;2023-09-08T03:34:40;9.00;;;5.20;;
73672;SDS011;61972;19.480;-99.240;2023-09-08T03:37:06;8.68;;;5.28;;
73672;SDS011;61972;19.480;-99.240;2023-09-08T03:39:32;10.38;;;5.10;;
73672;SDS011;61972;19.480;-99.240;2023-09-08T03:41:58;8.77;;;5.70;;
73672;SDS011;61972;19.480;-99.240;2023-09-08T03:44:24;8.93;;;5.20;;
73672;SDS011;61972;19.480;-99.240;2023-09-08T03:46:50;9.18;;;4.90;;
73672;SDS011;61972;19.480;-99.240;2023-09-08T03:49:16;7.68;;;5.22;;
73672;SDS011;61972;19.480;-99.240;2023-09-08T03:51:43;8.05;;;5.28;;
73672;SDS011;61972;19.480;-99.240;2023-09-08T03:54:09;8.43;;;5.18;;
73672;SDS011;61972;19.480;-99.240;2023-09-08T03:56:35;10.57;;;5.23;;
73672;SDS011;61972;19.480;-99.240;2023-09-08T03:59:02;8.23;;;4.90;;
73672;SDS011;61972;19.480;-99.240;2023-09-08T04:01:28;8.85;;;5.10;;
73672;SDS011;61972;19.480;-99.240;2023-09-08T04:03:54;8.55;;;5.00;;
73672;SDS011;61972;19.480;-99.240;2023-09-08T04:06:20;7.35;;;4.95;;
73672;SDS011;61972;19.480;-99.240;2023-09-08T04:08:47;8.83;;;5.40;;
73672;SDS011;61972;19.480;-99.240;2023-09-08T04:11:13;8.95;;;4.88;;
73672;SDS011;61972;19.480;-99.240;2023-09-08T04:13:39;7.53;;;4.88;;
73672;SDS011;61972;19.480;-99.240;2023-09-08T04:16:05;9.65;;;5.60;;
73672;SDS011;61972;19.480;-99.240;2023-09-08T04:18:31;11.60;;;5.30;;
73672;SDS011;61972;19.480;-99.240;2023-09-08T04:20:57;10.53;;;6.30;;
73672;SDS011;61972;19.480;-99.240;2023-09-08T04:23:23;10.05;;;5.38;;
73672;SDS011;61972;19.480;-99.240;2023-09-08T04:25:49;9.13;;;5.25;;
73672;SDS011;61972;19.480;-99.240;2023-09-08T04:28:15;12.00;;;5.70;;
73672;SDS011;61972;19.480;-99.240;2023-09-08T04:30:41;9.13;;;5.38;;
73672;SDS011;61972;19.480;-99.240;2023-09-08T04:33:07;8.60;;;5.20;;
73672;SDS011;61972;19.480;-99.240;2023-09-08T04:35:33;10.35;;;5.43;;
73672;SDS011;61972;19.480;-99.240;2023-09-08T04:37:59;9.52;;;5.65;;
73672;SDS011;61972;19.480;-99.240;2023-09-08T04:40:26;10.75;;;6.03;;
73672;SDS011;61972;19.480;-99.240;2023-09-08T04:42:52;8.48;;;5.80;;
73672;SDS011;61972;19.480;-99.240;2023-09-08T04:45:18;10.20;;;5.67;;
73672;SDS011;61972;19.480;-99.240;2023-09-08T04:47:44;8.73;;;5.60;;
73672;SDS011;61972;19.480;-99.240;2023-09-08T04:50:12;9.43;;;5.57;;
73672;SDS011;61972;19.480;-99.240;2023-09-08T04:52:38;8.93;;;5.85;;
73672;SDS011;61972;19.480;-99.240;2023-09-08T04:55:04;10.52;;;6.00;;
73672;SDS011;61972;19.480;-99.240;2023-09-08T04:57:30;9.80;;;6.10;;
73672;SDS011;61972;19.480;-99.240;2023-09-08T04:59:57;9.50;;;5.82;;
73672;SDS011;61972;19.480;-99.240;2023-09-08T05:02:23;9.43;;;6.28;;
73672;SDS011;61972;19.480;-99.240;2023-09-08T05:04:49;9.38;;;5.93;;
73672;SDS011;61972;19.480;-99.240;2023-09-08T05:07:15;10.32;;;6.05;;
73672;SDS011;61972;19.480;-99.240;2023-09-08T05:09:41;10.47;;;6.40;;
73672;SDS011;61972;19.480;-99.240;2023-09-08T05:12:07;10.02;;;5.93;;
73672;SDS011;61972;19.480;-99.240;2023-09-08T05:14:33;11.43;;;6.10;;
73672;SDS011;61972;19.480;-99.240;2023-09-08T05:16:59;11.35;;;6.30;;
73672;SDS011;61972;19.480;-99.240;2023-09-08T05:19:25;9.75;;;5.78;;
73672;SDS011;61972;19.480;-99.240;2023-09-08T05:21:53;9.17;;;5.87;;
73672;SDS011;61972;19.480;-99.240;2023-09-08T05:24:20;12.93;;;6.03;;
73672;SDS011;61972;19.480;-99.240;2023-09-08T05:26:46;10.90;;;6.43;;
73672;SDS011;61972;19.480;-99.240;2023-09-08T05:29:12;12.07;;;6.43;;
73672;SDS011;61972;19.480;-99.240;2023-09-08T05:31:38;9.60;;;6.15;;
73672;SDS011;61972;19.480;-99.240;2023-09-08T05:34:05;11.63;;;6.03;;
73672;SDS011;61972;19.480;-99.240;2023-09-08T05:36:31;9.75;;;6.38;;
73672;SDS011;61972;19.480;-99.240;2023-09-08T05:38:59;8.70;;;6.55;;
73672;SDS011;61972;19.480;-99.240;2023-09-08T05:41:26;9.32;;;6.32;;
73672;SDS011;61972;19.480;-99.240;2023-09-08T05:43:52;11.77;;;6.55;;
73672;SDS011;61972;19.480;-99.240;2023-09-08T05:46:18;8.83;;;6.20;;
73672;SDS011;61972;19.480;-99.240;2023-09-08T05:48:44;8.95;;;5.90;;
73672;SDS011;61972;19.480;-99.240;2023-09-08T05:51:10;8.10;;;5.82;;
73672;SDS011;61972;19.480;-99.240;2023-09-08T05:53:37;9.05;;;5.97;;
73672;SDS011;61972;19.480;-99.240;2023-09-08T05:56:05;9.15;;;5.85;;
73672;SDS011;61972;19.480;-99.240;2023-09-08T05:58:32;10.90;;;6.33;;
73672;SDS011;61972;19.480;-99.240;2023-09-08T06:01:00;7.68;;;5.10;;
73672;SDS011;61972;19.480;-99.240;2023-09-08T06:03:28;8.23;;;5.32;;
73672;SDS011;61972;19.480;-99.240;2023-09-08T06:05:55;7.75;;;5.07;;
73672;SDS011;61972;19.480;-99.240;2023-09-08T06:08:22;9.93;;;5.78;;
73672;SDS011;61972;19.480;-99.240;2023-09-08T06:10:48;9.53;;;5.53;;
73672;SDS011;61972;19.480;-99.240;2023-09-08T06:13:14;8.13;;;5.40;;
73672;SDS011;61972;19.480;-99.240;2023-09-08T06:15:41;9.00;;;5.20;;
73672;SDS011;61972;19.480;-99.240;2023-09-08T06:18:07;8.85;;;5.32;;
73672;SDS011;61972;19.480;-99.240;2023-09-08T06:20:33;8.18;;;4.88;;
73672;SDS011;61972;19.480;-99.240;2023-09-08T06:22:59;7.93;;;5.23;;
73672;SDS011;61972;19.480;-99.240;2023-09-08T06:25:26;9.57;;;5.20;;
73672;SDS011;61972;19.480;-99.240;2023-09-08T06:27:53;6.60;;;4.80;;
73672;SDS011;61972;19.480;-99.240;2023-09-08T06:30:19;7.55;;;5.60;;
73672;SDS011;61972;19.480;-99.240;2023-09-08T06:32:46;7.60;;;5.15;;
73672;SDS011;61972;19.480;-99.240;2023-09-08T06:35:12;6.90;;;5.13;;
73672;SDS011;61972;19.480;-99.240;2023-09-08T06:37:38;7.70;;;5.30;;
73672;SDS011;61972;19.480;-99.240;2023-09-08T06:40:05;7.45;;;5.10;;
73672;SDS011;61972;19.480;-99.240;2023-09-08T06:42:32;8.10;;;5.05;;
73672;SDS011;61972;19.480;-99.240;2023-09-08T06:44:58;6.78;;;4.90;;
73672;SDS011;61972;19.480;-99.240;2023-09-08T06:47:25;8.83;;;5.00;;
73672;SDS011;61972;19.480;-99.240;2023-09-08T06:49:51;6.60;;;4.50;;
73672;SDS011;61972;19.480;-99.240;2023-09-08T06:52:17;7.18;;;4.90;;
73672;SDS011;61972;19.480;-99.240;2023-09-08T06:54:44;8.43;;;4.80;;
73672;SDS011;61972;19.480;-99.240;2023-09-08T06:57:13;7.13;;;5.05;;
73672;SDS011;61972;19.480;-99.240;2023-09-08T06:59:39;6.73;;;4.60;;
73672;SDS011;61972;19.480;-99.240;2023-09-08T07:02:06;7.22;;;5.13;;
73672;SDS011;61972;19.480;-99.240;2023-09-08T07:04:33;6.03;;;4.50;;
73672;SDS011;61972;19.480;-99.240;2023-09-08T07:06:59;7.07;;;4.72;;
73672;SDS011;61972;19.480;-99.240;2023-09-08T07:09:32;7.53;;;4.95;;
73672;SDS011;61972;19.480;-99.240;2023-09-08T07:12:00;8.87;;;4.47;;
73672;SDS011;61972;19.480;-99.240;2023-09-08T07:14:26;9.68;;;5.40;;
73672;SDS011;61972;19.480;-99.240;2023-09-08T07:16:52;8.40;;;4.82;;
73672;SDS011;61972;19.480;-99.240;2023-09-08T07:19:18;6.68;;;4.68;;
73672;SDS011;61972;19.480;-99.240;2023-09-08T07:21:44;6.82;;;5.05;;
73672;SDS011;61972;19.480;-99.240;2023-09-08T07:24:10;6.10;;;4.43;;
73672;SDS011;61972;19.480;-99.240;2023-09-08T07:26:37;6.95;;;4.60;;
73672;SDS011;61972;19.480;-99.240;2023-09-08T07:29:03;7.43;;;4.88;;
73672;SDS011;61972;19.480;-99.240;2023-09-08T07:31:29;6.88;;;4.70;;
73672;SDS011;61972;19.480;-99.240;2023-09-08T07:33:55;7.53;;;4.43;;
73672;SDS011;61972;19.480;-99.240;2023-09-08T07:36:21;5.50;;;4.00;;
73672;SDS011;61972;19.480;-99.240;2023-09-08T07:38:47;6.53;;;4.35;;
73672;SDS011;61972;19.480;-99.240;2023-09-08T07:41:13;6.35;;;4.45;;
73672;SDS011;61972;19.480;-99.240;2023-09-08T07:43:40;6.40;;;4.50;;
73672;SDS011;61972;19.480;-99.240;2023-09-08T07:46:07;7.15;;;4.75;;
73672;SDS011;61972;19.480;-99.240;2023-09-08T07:48:34;5.77;;;4.20;;
73672;SDS011;61972;19.480;-99.240;2023-09-08T07:51:00;6.25;;;4.40;;
73672;SDS011;61972;19.480;-99.240;2023-09-08T07:53:26;7.05;;;4.65;;
73672;SDS011;61972;19.480;-99.240;2023-09-08T07:55:53;6.45;;;4.13;;
73672;SDS011;61972;19.480;-99.240;2023-09-08T07:58:19;6.97;;;4.32;;
73672;SDS011;61972;19.480;-99.240;2023-09-08T08:00:45;5.87;;;4.10;;
73672;SDS011;61972;19.480;-99.240;2023-09-08T08:03:11;6.07;;;4.55;;
73672;SDS011;61972;19.480;-99.240;2023-09-08T08:05:37;5.63;;;4.00;;
73672;SDS011;61972;19.480;-99.240;2023-09-08T08:08:04;5.93;;;4.32;;
73672;SDS011;61972;19.480;-99.240;2023-09-08T08:10:30;5.68;;;4.25;;
73672;SDS011;61972;19.480;-99.240;2023-09-08T08:12:56;6.57;;;4.27;;
73672;SDS011;61972;19.480;-99.240;2023-09-08T08:15:22;6.32;;;4.20;;
73672;SDS011;61972;19.480;-99.240;2023-09-08T08:17:59;5.65;;;3.90;;
73672;SDS011;61972;19.480;-99.240;2023-09-08T08:20:25;5.75;;;3.80;;
73672;SDS011;61972;19.480;-99.240;2023-09-08T08:22:51;6.40;;;4.07;;
73672;SDS011;61972;19.480;-99.240;2023-09-08T08:25:17;5.53;;;4.00;;
73672;SDS011;61972;19.480;-99.240;2023-09-08T08:27:43;6.40;;;4.32;;
73672;SDS011;61972;19.480;-99.240;2023-09-08T08:30:10;4.82;;;3.67;;
73672;SDS011;61972;19.480;-99.240;2023-09-08T08:32:36;6.10;;;4.10;;
73672;SDS011;61972;19.480;-99.240;2023-09-08T08:35:02;6.25;;;4.05;;
73672;SDS011;61972;19.480;-99.240;2023-09-08T08:37:32;5.90;;;4.20;;
73672;SDS011;61972;19.480;-99.240;2023-09-08T08:40:01;6.20;;;3.95;;
73672;SDS011;61972;19.480;-99.240;2023-09-08T08:42:32;5.35;;;3.90;;
73672;SDS011;61972;19.480;-99.240;2023-09-08T08:44:59;5.13;;;3.85;;
73672;SDS011;61972;19.480;-99.240;2023-09-08T08:47:26;5.50;;;4.10;;
73672;SDS011;61972;19.480;-99.240;2023-09-08T08:49:55;5.80;;;4.60;;
73672;SDS011;61972;19.480;-99.240;2023-09-08T08:52:24;8.55;;;6.03;;
73672;SDS011;61972;19.480;-99.240;2023-09-08T08:54:54;6.97;;;5.20;;
73672;SDS011;61972;19.480;-99.240;2023-09-08T08:57:20;6.07;;;4.43;;
73672;SDS011;61972;19.480;-99.240;2023-09-08T08:59:49;8.63;;;4.63;;
73672;SDS011;61972;19.480;-99.240;2023-09-08T09:02:18;7.10;;;4.90;;
73672;SDS011;61972;19.480;-99.240;2023-09-08T09:04:45;5.90;;;4.32;;
73672;SDS011;61972;19.480;-99.240;2023-09-08T09:07:12;6.72;;;4.68;;
73672;SDS011;61972;19.480;-99.240;2023-09-08T09:09:38;6.60;;;4.43;;
73672;SDS011;61972;19.480;-99.240;2023-09-08T09:12:05;6.80;;;4.88;;
73672;SDS011;61972;19.480;-99.240;2023-09-08T09:14:34;6.03;;;4.33;;
73672;SDS011;61972;19.480;-99.240;2023-09-08T09:17:01;5.80;;;4.25;;
73672;SDS011;61972;19.480;-99.240;2023-09-08T09:19:29;5.68;;;4.20;;
73672;SDS011;61972;19.480;-99.240;2023-09-08T09:21:57;7.10;;;4.20;;
73672;SDS011;61972;19.480;-99.240;2023-09-08T09:24:33;5.88;;;4.40;;
73672;SDS011;61972;19.480;-99.240;2023-09-08T09:27:06;6.10;;;4.43;;
73672;SDS011;61972;19.480;-99.240;2023-09-08T09:29:33;5.50;;;3.80;;
73672;SDS011;61972;19.480;-99.240;2023-09-08T09:32:03;5.93;;;4.28;;
73672;SDS011;61972;19.480;-99.240;2023-09-08T09:34:31;6.43;;;4.28;;
73672;SDS011;61972;19.480;-99.240;2023-09-08T09:36:57;5.53;;;3.92;;
73672;SDS011;61972;19.480;-99.240;2023-09-08T09:39:24;5.60;;;4.03;;
73672;SDS011;61972;19.480;-99.240;2023-09-08T09:41:54;6.47;;;4.15;;
73672;SDS011;61972;19.480;-99.240;2023-09-08T09:44:22;5.75;;;4.15;;
73672;SDS011;61972;19.480;-99.240;2023-09-08T09:46:48;5.05;;;3.80;;
73672;SDS011;61972;19.480;-99.240;2023-09-08T09:49:17;5.72;;;4.18;;
73672;SDS011;61972;19.480;-99.240;2023-09-08T09:51:45;5.27;;;4.10;;
73672;SDS011;61972;19.480;-99.240;2023-09-08T09:54:19;5.78;;;4.10;;
73672;SDS011;61972;19.480;-99.240;2023-09-08T09:56:45;7.07;;;4.18;;
73672;SDS011;61972;19.480;-99.240;2023-09-08T09:59:17;5.70;;;4.18;;
73672;SDS011;61972;19.480;-99.240;2023-09-08T10:01:43;5.60;;;4.05;;
73672;SDS011;61972;19.480;-99.240;2023-09-08T10:04:11;6.73;;;4.30;;
73672;SDS011;61972;19.480;-99.240;2023-09-08T10:06:38;5.68;;;4.05;;
73672;SDS011;61972;19.480;-99.240;2023-09-08T10:09:05;5.72;;;3.80;;
73672;SDS011;61972;19.480;-99.240;2023-09-08T10:11:42;5.60;;;4.10;;
73672;SDS011;61972;19.480;-99.240;2023-09-08T10:14:13;7.40;;;4.25;;
73672;SDS011;61972;19.480;-99.240;2023-09-08T10:16:41;6.20;;;4.40;;
73672;SDS011;61972;19.480;-99.240;2023-09-08T10:19:10;6.63;;;3.72;;
73672;SDS011;61972;19.480;-99.240;2023-09-08T10:21:41;5.60;;;4.40;;
73672;SDS011;61972;19.480;-99.240;2023-09-08T10:24:26;5.50;;;4.22;;
73672;SDS011;61972;19.480;-99.240;2023-09-08T10:27:09;5.47;;;4.20;;
73672;SDS011;61972;19.480;-99.240;2023-09-08T10:29:36;5.20;;;3.83;;
73672;SDS011;61972;19.480;-99.240;2023-09-08T10:32:04;5.35;;;3.80;;
73672;SDS011;61972;19.480;-99.240;2023-09-08T10:34:33;5.18;;;3.78;;
73672;SDS011;61972;19.480;-99.240;2023-09-08T10:37:01;6.65;;;4.20;;
73672;SDS011;61972;19.480;-99.240;2023-09-08T10:44:43;5.45;;;4.03;;
73672;SDS011;61972;19.480;-99.240;2023-09-08T10:47:10;5.43;;;3.50;;
73672;SDS011;61972;19.480;-99.240;2023-09-08T10:49:36;5.50;;;3.95;;
73672;SDS011;61972;19.480;-99.240;2023-09-08T10:52:10;6.20;;;3.97;;
73672;SDS011;61972;19.480;-99.240;2023-09-08T10:57:13;5.00;;;3.67;;
73672;SDS011;61972;19.480;-99.240;2023-09-08T11:00:02;5.40;;;3.90;;
73672;SDS011;61972;19.480;-99.240;2023-09-08T11:02:38;5.68;;;3.88;;
73672;SDS011;61972;19.480;-99.240;2023-09-08T11:05:09;5.30;;;3.92;;
73672;SDS011;61972;19.480;-99.240;2023-09-08T11:07:39;5.47;;;4.07;;
73672;SDS011;61972;19.480;-99.240;2023-09-08T11:10:07;4.75;;;3.67;;
73672;SDS011;61972;19.480;-99.240;2023-09-08T11:12:34;6.45;;;3.60;;
73672;SDS011;61972;19.480;-99.240;2023-09-08T11:15:04;5.05;;;3.60;;
73672;SDS011;61972;19.480;-99.240;2023-09-08T11:17:35;6.28;;;3.90;;
73672;SDS011;61972;19.480;-99.240;2023-09-08T11:20:04;5.80;;;3.80;;
73672;SDS011;61972;19.480;-99.240;2023-09-08T11:22:36;4.90;;;3.60;;
73672;SDS011;61972;19.480;-99.240;2023-09-08T11:25:06;5.10;;;3.63;;
73672;SDS011;61972;19.480;-99.240;2023-09-08T11:27:35;5.20;;;3.70;;
73672;SDS011;61972;19.480;-99.240;2023-09-08T11:30:02;5.20;;;3.80;;
73672;SDS011;61972;19.480;-99.240;2023-09-08T11:32:33;5.67;;;3.80;;
73672;SDS011;61972;19.480;-99.240;2023-09-08T11:35:04;4.70;;;3.42;;
73672;SDS011;61972;19.480;-99.240;2023-09-08T11:37:34;4.50;;;3.47;;
73672;SDS011;61972;19.480;-99.240;2023-09-08T11:40:03;4.65;;;3.30;;
73672;SDS011;61972;19.480;-99.240;2023-09-08T11:42:34;5.13;;;3.90;;
73672;SDS011;61972;19.480;-99.240;2023-09-08T11:45:00;5.57;;;3.63;;
73672;SDS011;61972;19.480;-99.240;2023-09-08T11:47:29;5.45;;;3.92;;
73672;SDS011;61972;19.480;-99.240;2023-09-08T11:49:55;4.78;;;3.58;;
73672;SDS011;61972;19.480;-99.240;2023-09-08T11:52:23;5.03;;;3.70;;
73672;SDS011;61972;19.480;-99.240;2023-09-08T11:54:52;5.20;;;3.70;;
73672;SDS011;61972;19.480;-99.240;2023-09-08T11:57:18;4.80;;;3.60;;
73672;SDS011;61972;19.480;-99.240;2023-09-08T11:59:44;5.25;;;3.72;;
73672;SDS011;61972;19.480;-99.240;2023-09-08T12:02:13;5.50;;;3.75;;
73672;SDS011;61972;19.480;-99.240;2023-09-08T12:04:40;5.30;;;3.75;;
73672;SDS011;61972;19.480;-99.240;2023-09-08T12:07:11;4.65;;;3.40;;
73672;SDS011;61972;19.480;-99.240;2023-09-08T12:09:40;4.60;;;3.30;;
73672;SDS011;61972;19.480;-99.240;2023-09-08T12:12:10;4.60;;;3.40;;
73672;SDS011;61972;19.480;-99.240;2023-09-08T12:14:41;5.68;;;3.88;;
73672;SDS011;61972;19.480;-99.240;2023-09-08T12:17:07;4.75;;;3.50;;
73672;SDS011;61972;19.480;-99.240;2023-09-08T12:19:34;4.63;;;3.40;;
73672;SDS011;61972;19.480;-99.240;2023-09-08T12:22:04;4.70;;;3.60;;
73672;SDS011;61972;19.480;-99.240;2023-09-08T12:24:49;5.70;;;3.65;;
73672;SDS011;61972;19.480;-99.240;2023-09-08T12:27:22;5.00;;;3.63;;
73672;SDS011;61972;19.480;-99.240;2023-09-08T12:29:53;4.85;;;3.53;;
73672;SDS011;61972;19.480;-99.240;2023-09-08T12:32:20;7.78;;;5.10;;
73672;SDS011;61972;19.480;-99.240;2023-09-08T12:34:47;6.27;;;4.20;;
73672;SDS011;61972;19.480;-99.240;2023-09-08T12:37:14;7.18;;;3.95;;
73672;SDS011;61972;19.480;-99.240;2023-09-08T12:39:46;6.35;;;4.10;;
73672;SDS011;61972;19.480;-99.240;2023-09-08T12:42:12;5.90;;;4.07;;
73672;SDS011;61972;19.480;-99.240;2023-09-08T12:44:38;5.38;;;4.10;;
73672;SDS011;61972;19.480;-99.240;2023-09-08T12:47:06;6.00;;;3.93;;
73672;SDS011;61972;19.480;-99.240;2023-09-08T12:49:32;6.63;;;4.20;;
73672;SDS011;61972;19.480;-99.240;2023-09-08T12:51:58;5.13;;;3.67;;
73672;SDS011;61972;19.480;-99.240;2023-09-08T12:54:24;5.68;;;3.97;;
73672;SDS011;61972;19.480;-99.240;2023-09-08T12:56:50;5.88;;;4.15;;
73672;SDS011;61972;19.480;-99.240;2023-09-08T12:59:16;5.60;;;4.03;;
73672;SDS011;61972;19.480;-99.240;2023-09-08T13:01:42;5.47;;;4.18;;
73672;SDS011;61972;19.480;-99.240;2023-09-08T13:04:09;5.47;;;4.05;;
73672;SDS011;61972;19.480;-99.240;2023-09-08T13:06:35;5.45;;;4.05;;
73672;SDS011;61972;19.480;-99.240;2023-09-08T13:09:01;5.43;;;3.90;;
73672;SDS011;61972;19.480;-99.240;2023-09-08T13:11:27;4.83;;;3.57;;
73672;SDS011;61972;19.480;-99.240;2023-09-08T13:13:53;5.55;;;3.90;;
73672;SDS011;61972;19.480;-99.240;2023-09-08T13:16:19;6.10;;;3.95;;
73672;SDS011;61972;19.480;-99.240;2023-09-08T13:18:45;5.25;;;3.45;;
73672;SDS011;61972;19.480;-99.240;2023-09-08T13:21:12;5.30;;;3.90;;
73672;SDS011;61972;19.480;-99.240;2023-09-08T13:23:38;7.47;;;4.40;;
73672;SDS011;61972;19.480;-99.240;2023-09-08T13:26:05;5.65;;;3.75;;
73672;SDS011;61972;19.480;-99.240;2023-09-08T13:28:31;4.65;;;3.40;;
73672;SDS011;61972;19.480;-99.240;2023-09-08T13:30:57;5.25;;;3.92;;
73672;SDS011;61972;19.480;-99.240;2023-09-08T13:33:23;5.13;;;3.83;;
73672;SDS011;61972;19.480;-99.240;2023-09-08T13:35:49;5.87;;;3.60;;
73672;SDS011;61972;19.480;-99.240;2023-09-08T13:38:15;5.03;;;3.70;;
73672;SDS011;61972;19.480;-99.240;2023-09-08T13:40:42;5.78;;;3.90;;
73672;SDS011;61972;19.480;-99.240;2023-09-08T13:43:08;5.13;;;3.60;;
73672;SDS011;61972;19.480;-99.240;2023-09-08T13:45:36;5.32;;;3.60;;
73672;SDS011;61972;19.480;-99.240;2023-09-08T13:48:03;5.57;;;4.03;;
73672;SDS011;61972;19.480;-99.240;2023-09-08T13:50:31;5.63;;;3.65;;
73672;SDS011;61972;19.480;-99.240;2023-09-08T13:52:57;5.40;;;3.80;;
73672;SDS011;61972;19.480;-99.240;2023-09-08T13:55:24;5.47;;;3.80;;
73672;SDS011;61972;19.480;-99.240;2023-09-08T13:57:50;5.30;;;3.70;;
73672;SDS011;61972;19.480;-99.240;2023-09-08T14:00:17;5.03;;;3.50;;
73672;SDS011;61972;19.480;-99.240;2023-09-08T14:02:43;5.18;;;3.70;;
73672;SDS011;61972;19.480;-99.240;2023-09-08T14:05:10;5.72;;;4.07;;
73672;SDS011;61972;19.480;-99.240;2023-09-08T14:07:36;5.40;;;3.45;;
73672;SDS011;61972;19.480;-99.240;2023-09-08T14:10:02;5.60;;;3.70;;
73672;SDS011;61972;19.480;-99.240;2023-09-08T14:12:33;5.27;;;3.70;;
73672;SDS011;61972;19.480;-99.240;2023-09-08T14:14:59;5.55;;;3.78;;
73672;SDS011;61972;19.480;-99.240;2023-09-08T14:17:33;5.22;;;3.60;;
73672;SDS011;61972;19.480;-99.240;2023-09-08T14:20:02;5.78;;;3.78;;
73672;SDS011;61972;19.480;-99.240;2023-09-08T14:22:30;5.35;;;3.70;;
73672;SDS011;61972;19.480;-99.240;2023-09-08T14:24:57;5.77;;;3.47;;
73672;SDS011;61972;19.480;-99.240;2023-09-08T14:27:23;5.38;;;3.92;;
73672;SDS011;61972;19.480;-99.240;2023-09-08T14:29:49;5.35;;;3.53;;
73672;SDS011;61972;19.480;-99.240;2023-09-08T14:32:15;5.15;;;3.50;;